sensor_id;sensor_type;location;lat;lon;timestamp;pressure;altitude;pressure_sealevel;temperature;humidity
73457;BME280;61691;53.072;6.582;2022-12-18T00:01:31;102778.44;;;-2.30;78.55
73457;BME280;61691;53.072;6.582;2022-12-18T00:04:01;102772.41;;;-2.44;78.76
73457;BME280;61691;53.072;6.582;2022-12-18T00:06:29;102830.31;;;-2.10;78.44
73457;BME280;61691;53.072;6.582;2022-12-18T00:08:57;102824.28;;;-2.11;78.92
73457;BME280;61691;53.072;6.582;2022-12-18T00:11:27;102820.81;;;-2.13;78.89
73457;BME280;61691;53.072;6.582;2022-12-18T00:13:58;102827.72;;;-2.12;78.83
73457;BME280;61691;53.072;6.582;2022-12-18T00:16:27;102824.28;;;-2.14;78.85
73457;BME280;61691;53.072;6.582;2022-12-18T00:18:56;102818.22;;;-2.14;78.98
73457;BME280;61691;53.072;6.582;2022-12-18T00:21:25;102814.75;;;-2.16;78.89
73457;BME280;61691;53.072;6.582;2022-12-18T00:23:52;102815.63;;;-2.19;79.09
73457;BME280;61691;53.072;6.582;2022-12-18T00:26:27;102797.47;;;-2.26;78.81
73457;BME280;61691;53.072;6.582;2022-12-18T00:28:58;102810.44;;;-2.19;79.02
73457;BME280;61691;53.072;6.582;2022-12-18T00:31:26;102806.97;;;-2.19;79.15
73457;BME280;61691;53.072;6.582;2022-12-18T00:33:54;102808.72;;;-2.20;78.99
73457;BME280;61691;53.072;6.582;2022-12-18T00:36:24;102799.19;;;-2.24;78.80
73457;BME280;61691;53.072;6.582;2022-12-18T00:38:53;102776.72;;;-2.40;78.88
73457;BME280;61691;53.072;6.582;2022-12-18T00:41:21;102792.28;;;-2.29;78.58
73457;BME280;61691;53.072;6.582;2022-12-18T00:44:08;102807.91;;;-2.34;78.83
73457;BME280;61691;53.072;6.582;2022-12-18T00:46:35;102812.25;;;-2.42;78.76
73457;BME280;61691;53.072;6.582;2022-12-18T00:49:03;102797.56;;;-2.58;78.59
73457;BME280;61691;53.072;6.582;2022-12-18T00:51:30;102756.91;;;-2.78;78.78
73457;BME280;61691;53.072;6.582;2022-12-18T00:53:57;102815.69;;;-2.43;78.29
73457;BME280;61691;53.072;6.582;2022-12-18T00:56:24;102779.41;;;-2.64;78.53
73457;BME280;61691;53.072;6.582;2022-12-18T00:58:51;102808.78;;;-2.46;78.75
73457;BME280;61691;53.072;6.582;2022-12-18T01:01:18;102804.47;;;-2.53;78.47
73457;BME280;61691;53.072;6.582;2022-12-18T01:03:45;102785.47;;;-2.64;78.39
73457;BME280;61691;53.072;6.582;2022-12-18T01:06:14;102800.13;;;-2.52;78.59
73457;BME280;61691;53.072;6.582;2022-12-18T01:08:41;102806.19;;;-2.52;78.76
73457;BME280;61691;53.072;6.582;2022-12-18T01:11:10;102766.44;;;-2.74;78.71
73457;BME280;61691;53.072;6.582;2022-12-18T01:13:38;102798.41;;;-2.53;78.46
73457;BME280;61691;53.072;6.582;2022-12-18T01:16:06;102805.31;;;-2.55;78.48
73457;BME280;61691;53.072;6.582;2022-12-18T01:18:33;102801.03;;;-2.64;78.37
73457;BME280;61691;53.072;6.582;2022-12-18T01:21:05;102788.94;;;-2.82;78.49
73457;BME280;61691;53.072;6.582;2022-12-18T01:23:32;102791.53;;;-2.82;78.93
73457;BME280;61691;53.072;6.582;2022-12-18T01:26:04;102818.34;;;-2.66;78.57
73457;BME280;61691;53.072;6.582;2022-12-18T01:28:31;102827.88;;;-2.65;78.47
73457;BME280;61691;53.072;6.582;2022-12-18T01:33:42;102810.59;;;-2.89;78.68
73457;BME280;61691;53.072;6.582;2022-12-18T01:36:20;102836.53;;;-2.83;78.43
73457;BME280;61691;53.072;6.582;2022-12-18T01:38:49;102795.88;;;-3.16;78.55
73457;BME280;61691;53.072;6.582;2022-12-18T01:41:17;102838.25;;;-2.98;78.34
73457;BME280;61691;53.072;6.582;2022-12-18T01:43:53;102790.69;;;-3.26;78.44
73457;BME280;61691;53.072;6.582;2022-12-18T01:46:25;102819.25;;;-3.17;78.38
73457;BME280;61691;53.072;6.582;2022-12-18T01:48:57;102817.50;;;-3.18;78.55
73457;BME280;61691;53.072;6.582;2022-12-18T01:51:26;102814.88;;;-3.23;78.32
73457;BME280;61691;53.072;6.582;2022-12-18T01:53:53;102838.25;;;-3.18;78.54
73457;BME280;61691;53.072;6.582;2022-12-18T01:56:20;102755.22;;;-3.70;78.53
73457;BME280;61691;53.072;6.582;2022-12-18T01:58:58;102798.47;;;-3.47;78.23
73457;BME280;61691;53.072;6.582;2022-12-18T02:01:26;102800.16;;;-3.56;78.62
73457;BME280;61691;53.072;6.582;2022-12-18T02:03:55;102838.22;;;-3.36;78.46
73457;BME280;61691;53.072;6.582;2022-12-18T02:06:37;102842.53;;;-3.41;78.41
73457;BME280;61691;53.072;6.582;2022-12-18T02:09:12;102812.25;;;-3.62;78.55
73457;BME280;61691;53.072;6.582;2022-12-18T02:14:43;102839.91;;;-3.55;78.45
73457;BME280;61691;53.072;6.582;2022-12-18T02:17:32;102840.78;;;-3.55;78.61
73457;BME280;61691;53.072;6.582;2022-12-18T02:23:24;102814.84;;;-3.64;78.89
73457;BME280;61691;53.072;6.582;2022-12-18T02:28:41;102823.50;;;-3.51;79.01
73457;BME280;61691;53.072;6.582;2022-12-18T02:31:11;102816.59;;;-3.51;78.76
73457;BME280;61691;53.072;6.582;2022-12-18T02:33:42;102819.19;;;-3.57;78.72
73457;BME280;61691;53.072;6.582;2022-12-18T02:36:12;102796.66;;;-3.68;78.94
73457;BME280;61691;53.072;6.582;2022-12-18T02:38:42;102789.72;;;-3.81;78.97
73457;BME280;61691;53.072;6.582;2022-12-18T02:41:10;102811.34;;;-3.73;78.79
73457;BME280;61691;53.072;6.582;2022-12-18T02:43:36;102813.06;;;-3.78;78.82
73457;BME280;61691;53.072;6.582;2022-12-18T02:46:56;102832.97;;;-3.70;78.69
73457;BME280;61691;53.072;6.582;2022-12-18T02:57:54;102819.13;;;-3.72;78.64
73457;BME280;61691;53.072;6.582;2022-12-18T03:00:43;102813.94;;;-3.78;78.64
73457;BME280;61691;53.072;6.582;2022-12-18T03:03:17;102812.22;;;-3.79;78.62
73457;BME280;61691;53.072;6.582;2022-12-18T03:06:04;102822.56;;;-3.79;78.96
73457;BME280;61691;53.072;6.582;2022-12-18T03:08:37;102826.03;;;-3.80;78.66
73457;BME280;61691;53.072;6.582;2022-12-18T03:11:08;102812.19;;;-3.88;78.78
73457;BME280;61691;53.072;6.582;2022-12-18T03:13:51;102818.22;;;-3.81;78.89
73457;BME280;61691;53.072;6.582;2022-12-18T03:16:25;102812.19;;;-3.85;78.80
73457;BME280;61691;53.072;6.582;2022-12-18T03:18:59;102807.00;;;-3.88;78.79
73457;BME280;61691;53.072;6.582;2022-12-18T03:21:46;102804.38;;;-4.00;78.53
73457;BME280;61691;53.072;6.582;2022-12-18T03:24:15;102808.69;;;-3.99;78.88
73457;BME280;61691;53.072;6.582;2022-12-18T03:26:46;102828.56;;;-3.95;78.91
73457;BME280;61691;53.072;6.582;2022-12-18T03:29:25;102806.03;;;-4.14;78.91
73457;BME280;61691;53.072;6.582;2022-12-18T03:31:54;102831.13;;;-4.01;78.88
73457;BME280;61691;53.072;6.582;2022-12-18T03:34:34;102793.09;;;-4.14;78.99
73457;BME280;61691;53.072;6.582;2022-12-18T03:37:03;102799.97;;;-4.13;78.93
73457;BME280;61691;53.072;6.582;2022-12-18T03:39:30;102763.66;;;-4.32;78.79
73457;BME280;61691;53.072;6.582;2022-12-18T03:42:02;102814.72;;;-4.03;78.85
73457;BME280;61691;53.072;6.582;2022-12-18T03:44:42;102812.09;;;-4.09;78.60
73457;BME280;61691;53.072;6.582;2022-12-18T03:48:07;102806.88;;;-4.18;78.83
73457;BME280;61691;53.072;6.582;2022-12-18T03:50:31;102824.16;;;-4.11;78.81
73457;BME280;61691;53.072;6.582;2022-12-18T03:55:33;102812.91;;;-4.19;78.48
73457;BME280;61691;53.072;6.582;2022-12-18T03:58:02;102815.53;;;-4.16;78.75
73457;BME280;61691;53.072;6.582;2022-12-18T04:00:30;102810.31;;;-4.22;78.42
73457;BME280;61691;53.072;6.582;2022-12-18T04:02:59;102800.78;;;-4.30;78.68
73457;BME280;61691;53.072;6.582;2022-12-18T04:05:28;102792.13;;;-4.33;78.63
73457;BME280;61691;53.072;6.582;2022-12-18T04:07:57;102799.06;;;-4.29;78.23
73457;BME280;61691;53.072;6.582;2022-12-18T04:10:24;102784.34;;;-4.44;78.42
73457;BME280;61691;53.072;6.582;2022-12-18T04:12:50;102789.50;;;-4.41;78.45
73457;BME280;61691;53.072;6.582;2022-12-18T04:15:21;102760.06;;;-4.61;78.46
73457;BME280;61691;53.072;6.582;2022-12-18T04:17:49;102701.25;;;-4.97;77.91
73457;BME280;61691;53.072;6.582;2022-12-18T04:20:17;102797.28;;;-4.44;78.63
73457;BME280;61691;53.072;6.582;2022-12-18T04:22:43;102798.13;;;-4.42;78.50
73457;BME280;61691;53.072;6.582;2022-12-18T04:25:12;102800.72;;;-4.42;78.33
73457;BME280;61691;53.072;6.582;2022-12-18T04:27:39;102805.00;;;-4.47;78.38
73457;BME280;61691;53.072;6.582;2022-12-18T04:30:06;102815.41;;;-4.44;78.20
73457;BME280;61691;53.072;6.582;2022-12-18T04:32:34;102793.75;;;-4.53;78.54
73457;BME280;61691;53.072;6.582;2022-12-18T04:35:01;102815.41;;;-4.44;78.42
73457;BME280;61691;53.072;6.582;2022-12-18T04:37:28;102792.88;;;-4.60;78.15
73457;BME280;61691;53.072;6.582;2022-12-18T04:39:55;102820.53;;;-4.47;78.28
73457;BME280;61691;53.072;6.582;2022-12-18T04:42:21;102779.84;;;-4.71;78.38
73457;BME280;61691;53.072;6.582;2022-12-18T04:44:48;102828.31;;;-4.47;78.14
73457;BME280;61691;53.072;6.582;2022-12-18T04:47:15;102811.84;;;-4.55;78.10
73457;BME280;61691;53.072;6.582;2022-12-18T04:49:42;102799.75;;;-4.62;78.23
73457;BME280;61691;53.072;6.582;2022-12-18T04:52:08;102785.03;;;-4.71;78.03
73457;BME280;61691;53.072;6.582;2022-12-18T04:54:35;102807.53;;;-4.57;78.18
73457;BME280;61691;53.072;6.582;2022-12-18T04:57:02;102719.22;;;-5.11;77.94
73457;BME280;61691;53.072;6.582;2022-12-18T04:59:28;102732.22;;;-5.01;78.00
73457;BME280;61691;53.072;6.582;2022-12-18T05:01:55;102805.81;;;-4.60;78.18
73457;BME280;61691;53.072;6.582;2022-12-18T05:04:22;102801.44;;;-4.67;78.07
73457;BME280;61691;53.072;6.582;2022-12-18T05:06:49;102778.06;;;-4.79;78.04
73457;BME280;61691;53.072;6.582;2022-12-18T05:09:16;102812.69;;;-4.57;78.23
73457;BME280;61691;53.072;6.582;2022-12-18T05:11:44;102793.66;;;-4.70;77.91
73457;BME280;61691;53.072;6.582;2022-12-18T05:14:11;102809.22;;;-4.64;78.02
73457;BME280;61691;53.072;6.582;2022-12-18T05:16:38;102794.44;;;-4.80;77.78
73457;BME280;61691;53.072;6.582;2022-12-18T05:19:05;102791.91;;;-4.71;78.06
73457;BME280;61691;53.072;6.582;2022-12-18T05:21:32;102825.63;;;-4.60;77.98
73457;BME280;61691;53.072;6.582;2022-12-18T05:23:59;102801.38;;;-4.76;77.96
73457;BME280;61691;53.072;6.582;2022-12-18T05:26:26;102806.50;;;-4.81;77.80
73457;BME280;61691;53.072;6.582;2022-12-18T05:28:52;102810.00;;;-4.73;77.87
73457;BME280;61691;53.072;6.582;2022-12-18T05:31:19;102816.88;;;-4.79;77.41
73457;BME280;61691;53.072;6.582;2022-12-18T05:33:46;102819.50;;;-4.76;77.92
73457;BME280;61691;53.072;6.582;2022-12-18T05:36:13;102817.72;;;-4.82;77.52
73457;BME280;61691;53.072;6.582;2022-12-18T05:38:40;102834.13;;;-4.78;77.63
73457;BME280;61691;53.072;6.582;2022-12-18T05:41:08;102793.47;;;-4.97;77.42
73457;BME280;61691;53.072;6.582;2022-12-18T05:43:36;102806.41;;;-4.94;77.44
73457;BME280;61691;53.072;6.582;2022-12-18T05:46:15;102827.19;;;-4.85;77.43
73457;BME280;61691;53.072;6.582;2022-12-18T05:48:42;102807.25;;;-4.98;77.89
73457;BME280;61691;53.072;6.582;2022-12-18T05:51:11;102813.34;;;-4.90;77.58
73457;BME280;61691;53.072;6.582;2022-12-18T05:53:39;102813.34;;;-4.87;77.54
73457;BME280;61691;53.072;6.582;2022-12-18T05:56:10;102779.56;;;-5.13;77.52
73457;BME280;61691;53.072;6.582;2022-12-18T05:58:38;102838.41;;;-4.83;77.35
73457;BME280;61691;53.072;6.582;2022-12-18T06:01:14;102847.88;;;-4.85;77.56
73457;BME280;61691;53.072;6.582;2022-12-18T06:03:42;102846.97;;;-4.87;77.74
73457;BME280;61691;53.072;6.582;2022-12-18T06:06:28;102828.72;;;-5.09;77.53
73457;BME280;61691;53.072;6.582;2022-12-18T06:08:55;102856.44;;;-4.92;77.23
73457;BME280;61691;53.072;6.582;2022-12-18T06:11:25;102832.09;;;-5.16;77.49
73457;BME280;61691;53.072;6.582;2022-12-18T06:13:53;102874.50;;;-4.97;77.47
73457;BME280;61691;53.072;6.582;2022-12-18T06:16:28;102879.69;;;-4.97;77.18
73457;BME280;61691;53.072;6.582;2022-12-18T06:18:58;102889.16;;;-4.97;77.38
73457;BME280;61691;53.072;6.582;2022-12-18T06:21:25;102805.97;;;-5.46;77.35
73457;BME280;61691;53.072;6.582;2022-12-18T06:23:52;102888.28;;;-4.99;77.17
73457;BME280;61691;53.072;6.582;2022-12-18T06:26:19;102858.00;;;-5.10;77.34
73457;BME280;61691;53.072;6.582;2022-12-18T06:28:53;102883.13;;;-4.95;77.08
73457;BME280;61691;53.072;6.582;2022-12-18T06:31:20;102881.38;;;-5.00;77.04
73457;BME280;61691;53.072;6.582;2022-12-18T06:33:47;102870.13;;;-5.05;77.26
73457;BME280;61691;53.072;6.582;2022-12-18T06:36:14;102821.53;;;-5.40;77.04
73457;BME280;61691;53.072;6.582;2022-12-18T06:38:42;102876.09;;;-5.10;77.46
73457;BME280;61691;53.072;6.582;2022-12-18T06:41:14;102866.69;;;-5.03;77.85
73457;BME280;61691;53.072;6.582;2022-12-18T06:43:42;102817.47;;;-5.11;78.22
73457;BME280;61691;53.072;6.582;2022-12-18T06:46:09;102849.66;;;-4.78;78.28
73457;BME280;61691;53.072;6.582;2022-12-18T06:48:36;102849.72;;;-4.69;78.63
73457;BME280;61691;53.072;6.582;2022-12-18T06:51:03;102840.31;;;-4.56;78.98
73457;BME280;61691;53.072;6.582;2022-12-18T06:53:32;102791.00;;;-4.79;78.82
73457;BME280;61691;53.072;6.582;2022-12-18T06:56:04;102826.47;;;-4.58;78.33
73457;BME280;61691;53.072;6.582;2022-12-18T06:58:36;102819.56;;;-4.64;77.75
73457;BME280;61691;53.072;6.582;2022-12-18T07:01:05;102836.81;;;-4.68;76.85
73457;BME280;61691;53.072;6.582;2022-12-18T07:03:32;102820.19;;;-4.95;76.69
73457;BME280;61691;53.072;6.582;2022-12-18T07:05:59;102811.50;;;-5.07;77.06
73457;BME280;61691;53.072;6.582;2022-12-18T07:08:26;102747.41;;;-5.46;77.66
73457;BME280;61691;53.072;6.582;2022-12-18T07:10:53;102809.72;;;-5.11;77.29
73457;BME280;61691;53.072;6.582;2022-12-18T07:13:22;102814.09;;;-5.05;77.23
73457;BME280;61691;53.072;6.582;2022-12-18T07:15:49;102809.72;;;-5.11;77.05
73457;BME280;61691;53.072;6.582;2022-12-18T07:18:16;102806.25;;;-5.16;76.96
73457;BME280;61691;53.072;6.582;2022-12-18T07:20:43;102762.16;;;-5.32;77.30
73457;BME280;61691;53.072;6.582;2022-12-18T07:23:11;102783.81;;;-5.20;77.77
73457;BME280;61691;53.072;6.582;2022-12-18T07:25:38;102786.44;;;-5.11;77.23
73457;BME280;61691;53.072;6.582;2022-12-18T07:28:06;102804.59;;;-5.06;77.31
73457;BME280;61691;53.072;6.582;2022-12-18T07:30:37;102708.47;;;-5.64;77.10
73457;BME280;61691;53.072;6.582;2022-12-18T07:33:04;102774.28;;;-5.25;77.51
73457;BME280;61691;53.072;6.582;2022-12-18T07:35:32;102762.16;;;-5.31;77.61
73457;BME280;61691;53.072;6.582;2022-12-18T07:37:59;102799.38;;;-5.11;76.99
73457;BME280;61691;53.072;6.582;2022-12-18T07:40:26;102794.13;;;-5.23;76.74
73457;BME280;61691;53.072;6.582;2022-12-18T07:42:53;102769.84;;;-5.40;76.86
73457;BME280;61691;53.072;6.582;2022-12-18T07:45:20;102775.00;;;-5.43;76.83
73457;BME280;61691;53.072;6.582;2022-12-18T07:47:46;102820.00;;;-5.21;77.29
73457;BME280;61691;53.072;6.582;2022-12-18T07:50:13;102807.03;;;-5.27;77.22
73457;BME280;61691;53.072;6.582;2022-12-18T07:52:40;102797.50;;;-5.30;77.00
73457;BME280;61691;53.072;6.582;2022-12-18T07:55:07;102801.78;;;-5.32;77.17
73457;BME280;61691;53.072;6.582;2022-12-18T07:57:34;102823.44;;;-5.21;77.26
73457;BME280;61691;53.072;6.582;2022-12-18T08:00:17;102831.28;;;-5.09;77.59
73457;BME280;61691;53.072;6.582;2022-12-18T08:02:44;102834.72;;;-5.11;76.97
73457;BME280;61691;53.072;6.582;2022-12-18T08:05:11;102832.97;;;-5.14;76.82
73457;BME280;61691;53.072;6.582;2022-12-18T08:07:38;102814.03;;;-5.10;77.34
73457;BME280;61691;53.072;6.582;2022-12-18T08:10:05;102791.63;;;-5.14;77.11
73457;BME280;61691;53.072;6.582;2022-12-18T08:12:33;102786.47;;;-5.12;76.97
73457;BME280;61691;53.072;6.582;2022-12-18T08:15:01;102789.00;;;-5.15;76.81
73457;BME280;61691;53.072;6.582;2022-12-18T08:17:28;102782.03;;;-5.24;76.54
73457;BME280;61691;53.072;6.582;2022-12-18T08:19:55;102789.88;;;-5.15;76.85
73457;BME280;61691;53.072;6.582;2022-12-18T08:22:21;102769.19;;;-5.19;77.07
73457;BME280;61691;53.072;6.582;2022-12-18T08:24:48;102700.78;;;-5.59;76.41
73457;BME280;61691;53.072;6.582;2022-12-18T08:27:15;102721.53;;;-5.49;76.59
73457;BME280;61691;53.072;6.582;2022-12-18T08:29:57;102725.88;;;-5.44;76.68
73457;BME280;61691;53.072;6.582;2022-12-18T08:32:26;102789.13;;;-5.01;76.66
73457;BME280;61691;53.072;6.582;2022-12-18T08:34:53;102783.00;;;-5.11;76.48
73457;BME280;61691;53.072;6.582;2022-12-18T08:37:20;102790.84;;;-5.00;76.46
73457;BME280;61691;53.072;6.582;2022-12-18T08:39:47;102784.78;;;-5.02;76.64
73457;BME280;61691;53.072;6.582;2022-12-18T08:42:14;102764.91;;;-5.10;76.71
73457;BME280;61691;53.072;6.582;2022-12-18T08:44:59;102663.69;;;-5.67;76.17
73457;BME280;61691;53.072;6.582;2022-12-18T08:47:26;102787.50;;;-4.86;76.58
73457;BME280;61691;53.072;6.582;2022-12-18T08:49:52;102794.44;;;-4.80;76.70
73457;BME280;61691;53.072;6.582;2022-12-18T08:52:19;102798.81;;;-4.72;76.56
73457;BME280;61691;53.072;6.582;2022-12-18T08:54:46;102801.38;;;-4.73;76.46
73457;BME280;61691;53.072;6.582;2022-12-18T08:57:13;102803.16;;;-4.69;76.42
73457;BME280;61691;53.072;6.582;2022-12-18T08:59:40;102779.78;;;-4.83;76.57
73457;BME280;61691;53.072;6.582;2022-12-18T09:02:09;102826.53;;;-4.51;76.32
73457;BME280;61691;53.072;6.582;2022-12-18T09:04:37;102790.22;;;-4.64;75.95
73457;BME280;61691;53.072;6.582;2022-12-18T09:07:03;102800.59;;;-4.58;76.50
73457;BME280;61691;53.072;6.582;2022-12-18T09:09:30;102829.19;;;-4.40;76.36
73457;BME280;61691;53.072;6.582;2022-12-18T09:11:57;102820.59;;;-4.35;76.08
73457;BME280;61691;53.072;6.582;2022-12-18T09:14:24;102733.25;;;-4.77;76.10
73457;BME280;61691;53.072;6.582;2022-12-18T09:16:51;102810.28;;;-4.25;76.27
73457;BME280;61691;53.072;6.582;2022-12-18T09:19:17;102783.47;;;-4.35;76.09
73457;BME280;61691;53.072;6.582;2022-12-18T09:21:44;102773.13;;;-4.35;75.93
73457;BME280;61691;53.072;6.582;2022-12-18T09:24:14;102792.19;;;-4.19;76.19
73457;BME280;61691;53.072;6.582;2022-12-18T09:26:41;102776.69;;;-4.12;76.26
73457;BME280;61691;53.072;6.582;2022-12-18T09:29:13;102814.78;;;-3.76;75.84
73457;BME280;61691;53.072;6.582;2022-12-18T09:31:41;102813.97;;;-3.69;76.07
73457;BME280;61691;53.072;6.582;2022-12-18T09:34:08;102813.97;;;-3.60;75.95
73457;BME280;61691;53.072;6.582;2022-12-18T09:36:35;102807.09;;;-3.48;75.60
73457;BME280;61691;53.072;6.582;2022-12-18T09:39:02;102810.56;;;-3.37;75.57
73457;BME280;61691;53.072;6.582;2022-12-18T09:41:53;102812.28;;;-3.30;74.75
73457;BME280;61691;53.072;6.582;2022-12-18T09:44:34;102801.94;;;-3.18;75.14
73457;BME280;61691;53.072;6.582;2022-12-18T09:47:21;102782.91;;;-3.14;74.89
73457;BME280;61691;53.072;6.582;2022-12-18T09:49:53;102772.56;;;-3.17;74.83
73457;BME280;61691;53.072;6.582;2022-12-18T09:52:26;102781.19;;;-3.06;74.99
73457;BME280;61691;53.072;6.582;2022-12-18T09:55:00;102790.69;;;-2.96;75.01
73457;BME280;61691;53.072;6.582;2022-12-18T09:57:31;102769.94;;;-2.99;75.23
73457;BME280;61691;53.072;6.582;2022-12-18T10:00:08;102795.88;;;-2.82;75.33
73457;BME280;61691;53.072;6.582;2022-12-18T10:02:36;102789.84;;;-2.86;74.83
73457;BME280;61691;53.072;6.582;2022-12-18T10:05:04;102790.69;;;-2.79;74.70
73457;BME280;61691;53.072;6.582;2022-12-18T10:07:39;102789.78;;;-2.77;74.39
73457;BME280;61691;53.072;6.582;2022-12-18T10:13:29;102754.34;;;-2.84;74.64
73457;BME280;61691;53.072;6.582;2022-12-18T10:16:07;102738.78;;;-2.84;74.28
73457;BME280;61691;53.072;6.582;2022-12-18T10:18:48;102770.75;;;-2.69;74.56
73457;BME280;61691;53.072;6.582;2022-12-18T10:24:35;102746.53;;;-2.68;74.41
73457;BME280;61691;53.072;6.582;2022-12-18T10:27:24;102756.88;;;-2.62;74.33
73457;BME280;61691;53.072;6.582;2022-12-18T10:29:52;102747.38;;;-2.62;74.61
73457;BME280;61691;53.072;6.582;2022-12-18T10:32:25;102755.13;;;-2.54;74.44
73457;BME280;61691;53.072;6.582;2022-12-18T10:34:56;102752.53;;;-2.54;74.08
73457;BME280;61691;53.072;6.582;2022-12-18T10:37:28;102740.41;;;-2.54;74.07
73457;BME280;61691;53.072;6.582;2022-12-18T10:40:15;102733.53;;;-2.59;73.83
73457;BME280;61691;53.072;6.582;2022-12-18T10:43:10;102725.72;;;-2.62;74.24
73457;BME280;61691;53.072;6.582;2022-12-18T10:45:37;102720.56;;;-2.64;74.00
73457;BME280;61691;53.072;6.582;2022-12-18T10:48:04;102717.94;;;-2.62;74.13
73457;BME280;61691;53.072;6.582;2022-12-18T10:50:49;102709.28;;;-2.63;73.90
73457;BME280;61691;53.072;6.582;2022-12-18T10:53:40;102705.84;;;-2.66;74.28
73457;BME280;61691;53.072;6.582;2022-12-18T10:56:08;102676.50;;;-2.82;74.29
73457;BME280;61691;53.072;6.582;2022-12-18T10:58:38;102708.44;;;-2.60;74.17
73457;BME280;61691;53.072;6.582;2022-12-18T11:03:47;102687.63;;;-2.54;74.21
73457;BME280;61691;53.072;6.582;2022-12-18T11:06:28;102703.22;;;-2.51;74.22
73457;BME280;61691;53.072;6.582;2022-12-18T11:09:34;102722.22;;;-2.42;73.88
73457;BME280;61691;53.072;6.582;2022-12-18T11:12:25;102707.50;;;-2.46;73.92
73457;BME280;61691;53.072;6.582;2022-12-18T11:14:52;102700.53;;;-2.35;73.94
73457;BME280;61691;53.072;6.582;2022-12-18T11:17:29;102689.25;;;-2.29;74.09
73457;BME280;61691;53.072;6.582;2022-12-18T11:19:59;102685.75;;;-2.19;73.87
73457;BME280;61691;53.072;6.582;2022-12-18T11:22:32;102692.63;;;-2.18;73.78
73457;BME280;61691;53.072;6.582;2022-12-18T11:25:05;102692.63;;;-2.15;73.49
73457;BME280;61691;53.072;6.582;2022-12-18T11:27:56;102677.91;;;-2.16;73.64
73457;BME280;61691;53.072;6.582;2022-12-18T11:30:31;102687.41;;;-2.06;73.51
73457;BME280;61691;53.072;6.582;2022-12-18T11:33:20;102669.25;;;-2.13;73.38
73457;BME280;61691;53.072;6.582;2022-12-18T11:35:52;102648.50;;;-2.19;73.44
73457;BME280;61691;53.072;6.582;2022-12-18T11:41:24;102688.22;;;-1.99;72.37
73457;BME280;61691;53.072;6.582;2022-12-18T11:44:44;102675.19;;;-1.95;72.54
73457;BME280;61691;53.072;6.582;2022-12-18T11:49:55;102659.56;;;-1.91;72.99
73457;BME280;61691;53.072;6.582;2022-12-18T11:52:36;102655.19;;;-1.88;72.25
73457;BME280;61691;53.072;6.582;2022-12-18T11:55:24;102652.59;;;-1.83;72.63
73457;BME280;61691;53.072;6.582;2022-12-18T11:58:07;102612.00;;;-1.98;73.10
73457;BME280;61691;53.072;6.582;2022-12-18T12:00:49;102621.41;;;-1.86;72.92
73457;BME280;61691;53.072;6.582;2022-12-18T12:03:47;102643.84;;;-1.73;72.02
73457;BME280;61691;53.072;6.582;2022-12-18T12:10:08;102628.19;;;-1.67;71.81
73457;BME280;61691;53.072;6.582;2022-12-18T12:20:00;102538.28;;;-1.89;72.33
73457;BME280;61691;53.072;6.582;2022-12-18T12:25:29;102562.22;;;-1.57;71.31
73457;BME280;61691;53.072;6.582;2022-12-18T12:28:15;102569.00;;;-1.41;71.68
73457;BME280;61691;53.072;6.582;2022-12-18T12:31:40;102565.50;;;-1.40;71.39
73457;BME280;61691;53.072;6.582;2022-12-18T12:34:08;102572.44;;;-1.39;71.02
73457;BME280;61691;53.072;6.582;2022-12-18T12:39:35;102512.78;;;-1.54;70.81
73457;BME280;61691;53.072;6.582;2022-12-18T12:42:12;102520.41;;;-1.36;71.26
73457;BME280;61691;53.072;6.582;2022-12-18T12:45:01;102545.31;;;-1.17;71.18
73457;BME280;61691;53.072;6.582;2022-12-18T12:47:35;102516.78;;;-1.26;71.09
73457;BME280;61691;53.072;6.582;2022-12-18T12:50:06;102527.97;;;-1.18;70.91
73457;BME280;61691;53.072;6.582;2022-12-18T12:52:53;102531.41;;;-1.15;70.06
73457;BME280;61691;53.072;6.582;2022-12-18T12:55:27;102528.72;;;-1.09;70.78
73457;BME280;61691;53.072;6.582;2022-12-18T12:58:14;102509.50;;;-0.98;71.39
73457;BME280;61691;53.072;6.582;2022-12-18T13:01:01;102476.69;;;-1.09;70.12
73457;BME280;61691;53.072;6.582;2022-12-18T13:03:35;102425.00;;;-1.35;70.34
73457;BME280;61691;53.072;6.582;2022-12-18T13:06:23;102502.38;;;-0.85;69.39
73457;BME280;61691;53.072;6.582;2022-12-18T13:09:00;102514.47;;;-0.81;69.81
73457;BME280;61691;53.072;6.582;2022-12-18T13:14:24;102494.53;;;-0.82;69.99
73457;BME280;61691;53.072;6.582;2022-12-18T13:19:50;102495.28;;;-0.74;70.45
73457;BME280;61691;53.072;6.582;2022-12-18T13:22:40;102505.47;;;-0.59;69.87
73457;BME280;61691;53.072;6.582;2022-12-18T13:28:09;102493.31;;;-0.60;68.78
73457;BME280;61691;53.072;6.582;2022-12-18T13:38:32;102444.75;;;-0.61;68.83
73457;BME280;61691;53.072;6.582;2022-12-18T13:46:27;102482.66;;;-0.43;68.91
73457;BME280;61691;53.072;6.582;2022-12-18T13:51:25;102477.44;;;-0.45;68.82
73457;BME280;61691;53.072;6.582;2022-12-18T13:53:55;102470.56;;;-0.46;68.76
73457;BME280;61691;53.072;6.582;2022-12-18T13:56:29;102453.22;;;-0.50;68.21
73457;BME280;61691;53.072;6.582;2022-12-18T14:01:32;102455.81;;;-0.48;68.93
73457;BME280;61691;53.072;6.582;2022-12-18T14:04:10;102456.63;;;-0.45;67.83
73457;BME280;61691;53.072;6.582;2022-12-18T14:06:38;102424.72;;;-0.57;68.92
73457;BME280;61691;53.072;6.582;2022-12-18T14:09:05;102446.91;;;-0.35;69.19
73457;BME280;61691;53.072;6.582;2022-12-18T14:11:34;102426.97;;;-0.38;68.88
73457;BME280;61691;53.072;6.582;2022-12-18T14:14:03;102421.84;;;-0.41;68.79
73457;BME280;61691;53.072;6.582;2022-12-18T14:16:34;102440.91;;;-0.38;68.32
73457;BME280;61691;53.072;6.582;2022-12-18T14:19:02;102423.59;;;-0.43;68.86
73457;BME280;61691;53.072;6.582;2022-12-18T14:21:46;102377.13;;;-0.67;68.69
73457;BME280;61691;53.072;6.582;2022-12-18T14:24:19;102439.81;;;-0.27;68.39
73457;BME280;61691;53.072;6.582;2022-12-18T14:26:48;102431.28;;;-0.36;68.13
73457;BME280;61691;53.072;6.582;2022-12-18T14:32:24;102364.44;;;-0.88;66.98
73457;BME280;61691;53.072;6.582;2022-12-18T14:34:52;102439.22;;;-0.43;68.04
73457;BME280;61691;53.072;6.582;2022-12-18T14:37:24;102425.34;;;-0.45;67.92
73457;BME280;61691;53.072;6.582;2022-12-18T14:40:00;102408.19;;;-0.55;67.39